»·PEaware :: N462GB KAJO-KVCV

N462GB :: KAJO-KVCV

FLIGHT INFORMATION

Flight Status: Arrived
Operator: Privately registered:
United States
More flights under this callsign
Pilot: Galeno G. (3087)
Aircraft: BEECH AIRCRAFT BONANZA
(BE36)
More flights by this aircraft type
Origin: KAJO Corona Mun
United States
Destination: KVCV Socal Logistics
United States
More flights between these airports :: More routes between these airports
Route: PDZ V442 APLES
File this flight plan on PilotEdge
Remarks:
Altitude:
(Current/Filed)
9,000ft
Speed:
(Current/Filed)
140kts
Departed: 30-Nov-20 03:21 PM
Arrived: 30-Nov-20 04:14 PM
Distance/Time
Traveled:
43nm/0:53
Distance/Time
To Go:
Arrived

Flight Plot

Page will automatically refresh every two minutes.


Map Options




Map Legend


Flown Route
Filed Route
Departure Airport
Arrival Airport
Navaid (VOR, NDB)
Fix

Horizontal Profiles

Position Reports

Time Latitude Longitude Heading Altitude Ground
Speed
30-Nov-20 15:06 33.896433 -117.597589 96 523ft 0kts
30-Nov-20 15:07 33.896433 -117.597586 0 535ft 0kts
30-Nov-20 15:08 33.896433 -117.597586 0 535ft 0kts
30-Nov-20 15:09 33.896433 -117.597587 96 534ft 0kts
30-Nov-20 15:10 33.896433 -117.597587 96 534ft 0kts
30-Nov-20 15:11 33.896433 -117.597587 96 534ft 0kts
30-Nov-20 15:12 33.896433 -117.597587 96 534ft 0kts
30-Nov-20 15:13 33.896433 -117.597587 96 534ft 0kts
30-Nov-20 15:14 33.896433 -117.597587 96 534ft 0kts
30-Nov-20 15:15 33.896433 -117.597587 96 534ft 0kts
30-Nov-20 15:16 33.896433 -117.597587 96 534ft 0kts
30-Nov-20 15:17 33.896433 -117.597587 96 534ft 0kts
30-Nov-20 15:18 33.896433 -117.597584 94 534ft 0kts
30-Nov-20 15:19 33.897259 -117.597297 358 536ft 0kts
30-Nov-20 15:20 33.897704 -117.599310 269 531ft 49kts
30-Nov-20 15:21 33.904701 -117.623401 9 1305ft 101kts
30-Nov-20 15:22 33.919117 -117.594482 80 2234ft 102kts
30-Nov-20 15:23 33.917154 -117.559977 97 3139ft 105kts
30-Nov-20 15:24 33.921547 -117.526926 51 3975ft 102kts
30-Nov-20 15:25 33.944265 -117.508443 353 4821ft 104kts
30-Nov-20 15:26 33.942657 -117.528410 180 5651ft 111kts
30-Nov-20 15:27 33.924096 -117.542761 316 6496ft 107kts
30-Nov-20 15:28 33.950416 -117.533345 39 7311ft 109kts
30-Nov-20 15:29 33.970796 -117.506930 95 8139ft 112kts
30-Nov-20 15:30 33.943979 -117.501537 212 8964ft 114kts
30-Nov-20 15:31 33.929491 -117.531168 314 9773ft 112kts
30-Nov-20 15:32 33.959276 -117.515092 44 9142ft 130kts
30-Nov-20 15:33 33.991194 -117.485727 29 9008ft 153kts
30-Nov-20 15:34 34.029990 -117.463227 26 9000ft 157kts
30-Nov-20 15:35 34.069534 -117.439302 26 8999ft 159kts
30-Nov-20 15:36 34.109108 -117.415499 26 8999ft 159kts
30-Nov-20 15:37 34.148656 -117.391678 26 9008ft 158kts
30-Nov-20 15:38 34.188228 -117.367816 26 9009ft 158kts
30-Nov-20 15:39 34.227624 -117.344041 26 9009ft 158kts
30-Nov-20 15:40 34.267053 -117.320220 26 9011ft 159kts
30-Nov-20 15:41 34.306605 -117.296298 26 9005ft 159kts
30-Nov-20 15:42 34.346237 -117.272307 26 8999ft 158kts
30-Nov-20 15:43 34.385057 -117.248780 26 9082ft 155kts
30-Nov-20 15:44 34.424104 -117.225091 27 9077ft 158kts
30-Nov-20 15:45 34.463775 -117.201002 26 9010ft 159kts
30-Nov-20 15:46 34.503274 -117.176987 27 9010ft 158kts
30-Nov-20 15:47 34.542445 -117.153375 22 9025ft 157kts
30-Nov-20 15:48 34.585865 -117.146003 2 8601ft 157kts
30-Nov-20 15:49 34.628787 -117.148626 346 7801ft 154kts
30-Nov-20 15:50 34.669920 -117.161800 337 6999ft 151kts
30-Nov-20 15:51 34.704720 -117.185139 333 6648ft 130kts
30-Nov-20 15:52 34.734750 -117.215227 313 6605ft 166kts
30-Nov-20 15:53 34.766419 -117.259776 303 6597ft 178kts
30-Nov-20 15:54 34.786383 -117.311965 288 6049ft 156kts
30-Nov-20 15:55 34.783192 -117.358656 230 5299ft 144kts
30-Nov-20 15:56 34.754502 -117.386174 186 4504ft 128kts
30-Nov-20 15:57 34.717451 -117.384315 180 4308ft 120kts
30-Nov-20 15:58 34.685691 -117.385985 182 4101ft 109kts
30-Nov-20 15:59 34.655247 -117.386657 183 3486ft 106kts
30-Nov-20 16:00 34.629183 -117.386711 179 3031ft 84kts
30-Nov-20 16:01 34.601734 -117.385043 180 3452ft 115kts
30-Nov-20 16:02 34.583674 -117.408522 296 4613ft 112kts
30-Nov-20 16:03 34.602735 -117.437348 296 5621ft 110kts
30-Nov-20 16:04 34.608769 -117.480738 279 5976ft 154kts
30-Nov-20 16:05 34.617670 -117.535328 281 5996ft 170kts
30-Nov-20 16:06 34.596213 -117.574305 168 6000ft 173kts
30-Nov-20 16:07 34.578316 -117.528312 79 5578ft 164kts
30-Nov-20 16:09 34.584319 -117.474619 83 4882ft 155kts
30-Nov-20 16:10 34.587269 -117.427529 85 4043ft 114kts
30-Nov-20 16:11 34.593816 -117.392060 45 3745ft 115kts
30-Nov-20 16:12 34.614677 -117.365022 80 3428ft 93kts
30-Nov-20 16:13 34.596833 -117.370965 224 2859ft 59kts
30-Nov-20 16:14 34.593822 -117.372726 179 2859ft 0kts

Navigation Log

Ident Type
Flight plan parsing failed, navigation log unavailable